GCWP weather

Gold Coast Water Police Helicopter Landing Site
Gold Coast, Queensland, Australia

Public forecast

Using degrees Celsius for public forecast. Weather courtesy of forecast.io.

METAR (pilot weather report)

Closest report is Gold Coast Airport, 12.4 nm (22.9 km) SSE. Retrieved 2019/02/19 00:30 UTC (14 minutes ago):

YBCG 190030Z AUTO 02009KT 9999 // NCD 28/19 Q1008 RF00.0/000.0

TAF (pilot weather forecast)

Forecast is more than 12 hours old.

Closest forecast is Gold Coast Airport, 12.4 nm (22.9 km) SSE. Retrieved 2019/02/18 00:00 UTC (1 day ago):

TAF YBCG 182316Z 1900/1924 05010KT CAVOK FM190900 07006KT 9999 FEW020 FM191200 21005KT 9999 SCT020 FM192200 16012KT 9999 FEW025 BKN035